sensor_id;sensor_type;location;lat;lon;timestamp;pressure;altitude;pressure_sealevel;temperature;humidity
71491;BME280;59307;50.060;9.150;2022-09-01T00:02:12;99133.88;;;15.31;66.96
71491;BME280;59307;50.060;9.150;2022-09-01T00:04:38;99126.31;;;15.25;68.12
71491;BME280;59307;50.060;9.150;2022-09-01T00:07:05;99134.19;;;15.15;67.91
71491;BME280;59307;50.060;9.150;2022-09-01T00:09:30;99133.63;;;15.28;67.47
71491;BME280;59307;50.060;9.150;2022-09-01T00:11:55;99132.81;;;15.32;67.42
71491;BME280;59307;50.060;9.150;2022-09-01T00:14:25;99129.94;;;15.34;67.67
71491;BME280;59307;50.060;9.150;2022-09-01T00:16:51;99139.34;;;15.40;67.64
71491;BME280;59307;50.060;9.150;2022-09-01T00:19:18;99137.63;;;15.10;68.10
71491;BME280;59307;50.060;9.150;2022-09-01T00:21:44;99136.31;;;15.18;68.24
71491;BME280;59307;50.060;9.150;2022-09-01T00:24:12;99136.81;;;15.15;68.29
71491;BME280;59307;50.060;9.150;2022-09-01T00:26:38;99131.59;;;15.10;68.83
71491;BME280;59307;50.060;9.150;2022-09-01T00:29:04;99135.25;;;15.09;69.04
71491;BME280;59307;50.060;9.150;2022-09-01T00:31:30;99136.06;;;15.04;68.89
71491;BME280;59307;50.060;9.150;2022-09-01T00:33:56;99133.94;;;15.21;68.51
71491;BME280;59307;50.060;9.150;2022-09-01T00:36:21;99131.28;;;15.26;68.41
71491;BME280;59307;50.060;9.150;2022-09-01T00:38:48;99131.06;;;15.13;68.27
71491;BME280;59307;50.060;9.150;2022-09-01T00:41:15;99130.84;;;15.04;68.63
71491;BME280;59307;50.060;9.150;2022-09-01T00:43:53;99123.53;;;14.96;69.39
71491;BME280;59307;50.060;9.150;2022-09-01T00:46:26;99125.09;;;14.92;69.93
71491;BME280;59307;50.060;9.150;2022-09-01T00:48:56;99125.16;;;14.82;70.17
71491;BME280;59307;50.060;9.150;2022-09-01T00:51:23;99125.88;;;14.98;69.52
71491;BME280;59307;50.060;9.150;2022-09-01T00:53:50;99122.72;;;14.96;69.73
71491;BME280;59307;50.060;9.150;2022-09-01T00:56:16;99126.63;;;15.13;69.09
71491;BME280;59307;50.060;9.150;2022-09-01T00:58:42;99122.72;;;14.96;69.01
71491;BME280;59307;50.060;9.150;2022-09-01T01:01:08;99128.50;;;14.98;69.46
71491;BME280;59307;50.060;9.150;2022-09-01T01:03:34;99118.03;;;14.93;69.29
71491;BME280;59307;50.060;9.150;2022-09-01T01:06:04;99124.31;;;14.97;70.07
71491;BME280;59307;50.060;9.150;2022-09-01T01:08:34;99128.25;;;14.94;69.89
71491;BME280;59307;50.060;9.150;2022-09-01T01:13:29;99121.63;;;15.17;69.35
71491;BME280;59307;50.060;9.150;2022-09-01T01:16:00;99120.06;;;15.11;70.02
71491;BME280;59307;50.060;9.150;2022-09-01T01:18:26;99118.25;;;15.11;69.85
71491;BME280;59307;50.060;9.150;2022-09-01T01:21:05;99125.53;;;15.14;69.18
71491;BME280;59307;50.060;9.150;2022-09-01T01:24:28;99121.94;;;15.00;70.07
71491;BME280;59307;50.060;9.150;2022-09-01T01:26:56;99115.44;;;14.83;70.42
71491;BME280;59307;50.060;9.150;2022-09-01T01:29:35;99119.59;;;14.94;70.25
71491;BME280;59307;50.060;9.150;2022-09-01T01:32:03;99118.59;;;14.90;70.54
71491;BME280;59307;50.060;9.150;2022-09-01T01:34:36;99112.31;;;14.81;71.46
71491;BME280;59307;50.060;9.150;2022-09-01T01:37:04;99110.72;;;14.85;71.80
71491;BME280;59307;50.060;9.150;2022-09-01T01:39:29;99117.50;;;14.96;71.25
71491;BME280;59307;50.060;9.150;2022-09-01T01:41:55;99110.41;;;15.01;70.83
71491;BME280;59307;50.060;9.150;2022-09-01T01:44:24;99106.72;;;15.07;70.31
71491;BME280;59307;50.060;9.150;2022-09-01T01:46:52;99104.91;;;15.08;70.40
71491;BME280;59307;50.060;9.150;2022-09-01T01:49:22;99110.66;;;15.10;70.60
71491;BME280;59307;50.060;9.150;2022-09-01T01:51:50;99113.78;;;15.07;70.36
71491;BME280;59307;50.060;9.150;2022-09-01T01:54:22;99107.53;;;15.03;70.86
71491;BME280;59307;50.060;9.150;2022-09-01T01:56:49;99111.66;;;15.19;70.33
71491;BME280;59307;50.060;9.150;2022-09-01T01:59:14;99103.25;;;15.22;70.41
71491;BME280;59307;50.060;9.150;2022-09-01T02:01:42;99106.16;;;15.20;69.80
71491;BME280;59307;50.060;9.150;2022-09-01T02:04:09;99100.41;;;15.13;70.19
71491;BME280;59307;50.060;9.150;2022-09-01T02:06:36;99098.50;;;15.34;69.65
71491;BME280;59307;50.060;9.150;2022-09-01T02:09:06;99095.88;;;15.34;69.85
71491;BME280;59307;50.060;9.150;2022-09-01T02:11:31;99097.47;;;15.30;70.04
71491;BME280;59307;50.060;9.150;2022-09-01T02:13:59;99098.09;;;15.12;70.93
71491;BME280;59307;50.060;9.150;2022-09-01T02:16:26;99089.47;;;15.01;70.90
71491;BME280;59307;50.060;9.150;2022-09-01T02:18:52;99094.69;;;15.01;70.90
71491;BME280;59307;50.060;9.150;2022-09-01T02:21:20;99087.94;;;14.95;71.30
71491;BME280;59307;50.060;9.150;2022-09-01T02:23:50;99097.38;;;14.91;71.33
71491;BME280;59307;50.060;9.150;2022-09-01T02:26:23;99091.03;;;15.02;70.79
71491;BME280;59307;50.060;9.150;2022-09-01T02:28:55;99093.69;;;14.97;71.48
71491;BME280;59307;50.060;9.150;2022-09-01T02:31:21;99087.38;;;14.98;71.18
71491;BME280;59307;50.060;9.150;2022-09-01T02:33:47;99085.06;;;14.92;71.39
71491;BME280;59307;50.060;9.150;2022-09-01T02:36:15;99090.75;;;15.14;70.98
71491;BME280;59307;50.060;9.150;2022-09-01T02:38:43;99088.44;;;15.02;70.99
71491;BME280;59307;50.060;9.150;2022-09-01T02:41:11;99092.66;;;14.88;71.85
71491;BME280;59307;50.060;9.150;2022-09-01T02:43:41;99090.22;;;15.07;70.73
71491;BME280;59307;50.060;9.150;2022-09-01T02:46:10;99092.13;;;14.86;71.62
71491;BME280;59307;50.060;9.150;2022-09-01T02:48:39;99090.84;;;14.84;71.40
71491;BME280;59307;50.060;9.150;2022-09-01T02:51:08;99086.63;;;14.93;71.42
71491;BME280;59307;50.060;9.150;2022-09-01T02:53:35;99084.56;;;14.90;71.91
71491;BME280;59307;50.060;9.150;2022-09-01T02:56:03;99087.66;;;14.97;71.54
71491;BME280;59307;50.060;9.150;2022-09-01T02:58:33;99081.94;;;14.80;72.33
71491;BME280;59307;50.060;9.150;2022-09-01T03:01:10;99080.16;;;14.70;72.15
71491;BME280;59307;50.060;9.150;2022-09-01T03:03:36;99075.22;;;14.64;73.36
71491;BME280;59307;50.060;9.150;2022-09-01T03:06:02;99076.50;;;14.66;73.05
71491;BME280;59307;50.060;9.150;2022-09-01T03:08:27;99078.34;;;14.66;71.51
71491;BME280;59307;50.060;9.150;2022-09-01T03:10:53;99073.91;;;14.56;72.34
71491;BME280;59307;50.060;9.150;2022-09-01T03:13:21;99071.81;;;14.48;73.44
71491;BME280;59307;50.060;9.150;2022-09-01T03:15:47;99073.13;;;14.45;73.98
71491;BME280;59307;50.060;9.150;2022-09-01T03:18:14;99075.19;;;14.69;73.05
71491;BME280;59307;50.060;9.150;2022-09-01T03:20:42;99068.41;;;14.47;74.09
71491;BME280;59307;50.060;9.150;2022-09-01T03:23:12;99070.00;;;14.43;74.07
71491;BME280;59307;50.060;9.150;2022-09-01T03:25:40;99074.97;;;14.45;74.38
71491;BME280;59307;50.060;9.150;2022-09-01T03:28:06;99073.94;;;14.41;74.15
71491;BME280;59307;50.060;9.150;2022-09-01T03:30:34;99072.38;;;14.35;74.55
71491;BME280;59307;50.060;9.150;2022-09-01T03:33:01;99079.16;;;14.56;72.94
71491;BME280;59307;50.060;9.150;2022-09-01T03:35:28;99079.09;;;14.66;72.55
71491;BME280;59307;50.060;9.150;2022-09-01T03:37:54;99076.53;;;14.56;73.04
71491;BME280;59307;50.060;9.150;2022-09-01T03:40:24;99077.28;;;14.56;72.96
71491;BME280;59307;50.060;9.150;2022-09-01T03:42:52;99081.50;;;14.47;73.04
71491;BME280;59307;50.060;9.150;2022-09-01T03:45:18;99079.94;;;14.41;73.96
71491;BME280;59307;50.060;9.150;2022-09-01T03:47:44;99074.69;;;14.51;73.38
71491;BME280;59307;50.060;9.150;2022-09-01T03:50:16;99077.28;;;14.56;73.17
71491;BME280;59307;50.060;9.150;2022-09-01T03:52:51;99069.47;;;14.46;73.83
71491;BME280;59307;50.060;9.150;2022-09-01T03:55:31;99069.50;;;14.36;73.75
71491;BME280;59307;50.060;9.150;2022-09-01T03:58:05;99072.63;;;14.33;73.96
71491;BME280;59307;50.060;9.150;2022-09-01T04:00:36;99070.56;;;14.35;73.93
71491;BME280;59307;50.060;9.150;2022-09-01T04:03:04;99076.31;;;14.37;73.59
71491;BME280;59307;50.060;9.150;2022-09-01T04:05:33;99068.94;;;14.19;74.76
71491;BME280;59307;50.060;9.150;2022-09-01T04:08:03;99072.34;;;14.10;75.45
71491;BME280;59307;50.060;9.150;2022-09-01T04:10:31;99072.91;;;14.02;75.32
71491;BME280;59307;50.060;9.150;2022-09-01T04:12:58;99072.09;;;13.91;75.37
71491;BME280;59307;50.060;9.150;2022-09-01T04:15:25;99072.63;;;13.98;75.95
71491;BME280;59307;50.060;9.150;2022-09-01T04:17:51;99069.50;;;14.11;74.93
71491;BME280;59307;50.060;9.150;2022-09-01T04:20:37;99072.91;;;14.02;75.51
71491;BME280;59307;50.060;9.150;2022-09-01T04:23:21;99075.00;;;13.95;75.80
71491;BME280;59307;50.060;9.150;2022-09-01T04:26:09;99079.41;;;13.84;75.22
71491;BME280;59307;50.060;9.150;2022-09-01T04:28:39;99074.19;;;13.79;75.95
71491;BME280;59307;50.060;9.150;2022-09-01T04:31:10;99072.34;;;13.65;76.42
71491;BME280;59307;50.060;9.150;2022-09-01T04:33:39;99069.72;;;13.65;76.94
71491;BME280;59307;50.060;9.150;2022-09-01T04:36:14;99079.41;;;13.64;77.12
71491;BME280;59307;50.060;9.150;2022-09-01T04:38:43;99080.44;;;13.68;77.59
71491;BME280;59307;50.060;9.150;2022-09-01T04:41:09;99080.94;;;13.65;77.04
71491;BME280;59307;50.060;9.150;2022-09-01T04:43:40;99087.75;;;13.71;77.08
71491;BME280;59307;50.060;9.150;2022-09-01T04:46:06;99084.13;;;13.72;76.94
71491;BME280;59307;50.060;9.150;2022-09-01T04:48:31;99081.75;;;13.71;77.42
71491;BME280;59307;50.060;9.150;2022-09-01T04:50:58;99079.69;;;13.78;77.18
71491;BME280;59307;50.060;9.150;2022-09-01T04:53:24;99084.38;;;13.86;76.76
71491;BME280;59307;50.060;9.150;2022-09-01T04:55:50;99092.47;;;13.84;77.02
71491;BME280;59307;50.060;9.150;2022-09-01T04:58:18;99084.91;;;13.83;77.41
71491;BME280;59307;50.060;9.150;2022-09-01T05:00:46;99092.22;;;13.86;77.25
71491;BME280;59307;50.060;9.150;2022-09-01T05:03:13;99094.56;;;13.82;77.39
71491;BME280;59307;50.060;9.150;2022-09-01T05:05:43;99096.16;;;13.88;77.27
71491;BME280;59307;50.060;9.150;2022-09-01T05:08:18;99092.25;;;13.91;77.02
71491;BME280;59307;50.060;9.150;2022-09-01T05:10:46;99096.16;;;14.13;76.56
71491;BME280;59307;50.060;9.150;2022-09-01T05:13:13;99092.78;;;14.08;76.24
71491;BME280;59307;50.060;9.150;2022-09-01T05:15:42;99093.00;;;14.06;76.90
71491;BME280;59307;50.060;9.150;2022-09-01T05:18:12;99095.13;;;14.09;76.39
71491;BME280;59307;50.060;9.150;2022-09-01T05:20:39;99095.09;;;14.14;76.73
71491;BME280;59307;50.060;9.150;2022-09-01T05:23:08;99094.34;;;14.29;76.02
71491;BME280;59307;50.060;9.150;2022-09-01T05:25:38;99091.44;;;14.45;75.71
71491;BME280;59307;50.060;9.150;2022-09-01T05:28:05;99095.13;;;14.39;76.05
71491;BME280;59307;50.060;9.150;2022-09-01T05:30:32;99094.06;;;14.40;76.07
71491;BME280;59307;50.060;9.150;2022-09-01T05:33:00;99087.78;;;14.26;75.86
71491;BME280;59307;50.060;9.150;2022-09-01T05:35:26;99096.16;;;14.23;75.61
71491;BME280;59307;50.060;9.150;2022-09-01T05:37:52;99093.03;;;14.26;76.25
71491;BME280;59307;50.060;9.150;2022-09-01T05:40:18;99096.69;;;14.30;76.39
71491;BME280;59307;50.060;9.150;2022-09-01T05:42:44;99098.00;;;14.33;76.50
71491;BME280;59307;50.060;9.150;2022-09-01T05:45:10;99099.56;;;14.44;75.43
71491;BME280;59307;50.060;9.150;2022-09-01T05:47:38;99103.75;;;14.50;74.41
71491;BME280;59307;50.060;9.150;2022-09-01T05:50:04;99102.69;;;14.56;74.10
71491;BME280;59307;50.060;9.150;2022-09-01T05:52:35;99099.25;;;14.61;75.29
71491;BME280;59307;50.060;9.150;2022-09-01T05:55:01;99100.28;;;14.70;75.72
71491;BME280;59307;50.060;9.150;2022-09-01T05:57:26;99103.44;;;14.77;76.13
71491;BME280;59307;50.060;9.150;2022-09-01T05:59:51;99106.28;;;14.85;75.70
71491;BME280;59307;50.060;9.150;2022-09-01T06:02:21;99108.06;;;15.00;73.38
71491;BME280;59307;50.060;9.150;2022-09-01T06:04:46;99111.63;;;15.24;73.26
71491;BME280;59307;50.060;9.150;2022-09-01T06:07:15;99110.28;;;15.31;72.45
71491;BME280;59307;50.060;9.150;2022-09-01T06:09:44;99106.59;;;15.42;73.69
71491;BME280;59307;50.060;9.150;2022-09-01T06:12:10;99117.59;;;15.49;71.98
71491;BME280;59307;50.060;9.150;2022-09-01T06:14:44;99117.00;;;15.58;70.96
71491;BME280;59307;50.060;9.150;2022-09-01T06:17:10;99113.84;;;15.61;70.94
71491;BME280;59307;50.060;9.150;2022-09-01T06:19:36;99113.53;;;15.67;70.35
71491;BME280;59307;50.060;9.150;2022-09-01T06:22:04;99113.25;;;15.74;71.05
71491;BME280;59307;50.060;9.150;2022-09-01T06:24:30;99116.38;;;15.76;70.86
71491;BME280;59307;50.060;9.150;2022-09-01T06:26:55;99115.03;;;15.78;70.82
71491;BME280;59307;50.060;9.150;2022-09-01T06:29:20;99112.38;;;15.83;70.25
71491;BME280;59307;50.060;9.150;2022-09-01T06:31:46;99117.59;;;15.88;70.40
71491;BME280;59307;50.060;9.150;2022-09-01T06:34:17;99116.53;;;15.94;70.29
71491;BME280;59307;50.060;9.150;2022-09-01T06:36:44;99119.59;;;16.01;69.64
71491;BME280;59307;50.060;9.150;2022-09-01T06:39:10;99120.63;;;16.05;68.80
71491;BME280;59307;50.060;9.150;2022-09-01T06:41:46;99119.75;;;16.15;69.09
71491;BME280;59307;50.060;9.150;2022-09-01T06:44:15;99117.78;;;16.30;67.39
71491;BME280;59307;50.060;9.150;2022-09-01T06:46:46;99117.28;;;16.28;67.28
71491;BME280;59307;50.060;9.150;2022-09-01T06:49:12;99115.38;;;16.39;67.37
71491;BME280;59307;50.060;9.150;2022-09-01T06:51:37;99113.47;;;16.44;66.89
71491;BME280;59307;50.060;9.150;2022-09-01T06:54:02;99116.03;;;16.55;66.54
71491;BME280;59307;50.060;9.150;2022-09-01T06:56:30;99126.50;;;16.60;65.91
71491;BME280;59307;50.060;9.150;2022-09-01T06:58:59;99124.03;;;16.68;66.15
71491;BME280;59307;50.060;9.150;2022-09-01T07:01:26;99128.22;;;16.69;66.00
71491;BME280;59307;50.060;9.150;2022-09-01T07:03:52;99128.94;;;16.75;65.48
71491;BME280;59307;50.060;9.150;2022-09-01T07:06:20;99128.06;;;16.84;64.78
71491;BME280;59307;50.060;9.150;2022-09-01T07:08:58;99124.56;;;16.94;64.75
71491;BME280;59307;50.060;9.150;2022-09-01T07:11:29;99137.16;;;16.97;63.70
71491;BME280;59307;50.060;9.150;2022-09-01T07:14:01;99133.06;;;17.09;63.57
71491;BME280;59307;50.060;9.150;2022-09-01T07:16:29;99140.88;;;17.14;63.49
71491;BME280;59307;50.060;9.150;2022-09-01T07:18:59;99138.47;;;17.18;63.69
71491;BME280;59307;50.060;9.150;2022-09-01T07:21:27;99134.22;;;17.22;63.35
71491;BME280;59307;50.060;9.150;2022-09-01T07:23:53;99135.09;;;17.36;63.08
71491;BME280;59307;50.060;9.150;2022-09-01T07:26:19;99140.22;;;17.46;62.55
71491;BME280;59307;50.060;9.150;2022-09-01T07:28:48;99136.78;;;17.51;62.14
71491;BME280;59307;50.060;9.150;2022-09-01T07:31:29;99140.78;;;17.43;62.49
71491;BME280;59307;50.060;9.150;2022-09-01T07:34:00;99140.47;;;17.50;61.98
71491;BME280;59307;50.060;9.150;2022-09-01T07:36:25;99139.69;;;17.49;62.41
71491;BME280;59307;50.060;9.150;2022-09-01T07:38:51;99146.88;;;17.62;62.97
71491;BME280;59307;50.060;9.150;2022-09-01T07:41:19;99149.44;;;17.67;63.07
71491;BME280;59307;50.060;9.150;2022-09-01T07:43:46;99151.00;;;17.68;62.20
71491;BME280;59307;50.060;9.150;2022-09-01T07:46:15;99156.25;;;17.68;61.28
71491;BME280;59307;50.060;9.150;2022-09-01T07:48:41;99156.84;;;17.84;61.28
71491;BME280;59307;50.060;9.150;2022-09-01T07:51:06;99151.34;;;17.99;60.04
71491;BME280;59307;50.060;9.150;2022-09-01T07:53:33;99157.41;;;17.99;59.99
71491;BME280;59307;50.060;9.150;2022-09-01T07:56:05;99152.28;;;18.08;59.75
71491;BME280;59307;50.060;9.150;2022-09-01T07:58:33;99157.94;;;18.15;59.29
71491;BME280;59307;50.060;9.150;2022-09-01T08:01:00;99162.84;;;18.21;58.40
71491;BME280;59307;50.060;9.150;2022-09-01T08:03:28;99157.50;;;18.26;59.45
71491;BME280;59307;50.060;9.150;2022-09-01T08:05:53;99156.41;;;18.27;57.91
71491;BME280;59307;50.060;9.150;2022-09-01T08:08:23;99154.53;;;18.33;58.67
71491;BME280;59307;50.060;9.150;2022-09-01T08:10:49;99160.41;;;18.44;58.99
71491;BME280;59307;50.060;9.150;2022-09-01T08:13:15;99166.00;;;18.56;57.76
71491;BME280;59307;50.060;9.150;2022-09-01T08:15:41;99172.34;;;18.55;56.80
71491;BME280;59307;50.060;9.150;2022-09-01T08:18:07;99165.94;;;18.61;57.87
71491;BME280;59307;50.060;9.150;2022-09-01T08:20:36;99168.50;;;18.79;56.88
71491;BME280;59307;50.060;9.150;2022-09-01T08:23:04;99167.13;;;18.95;55.96
71491;BME280;59307;50.060;9.150;2022-09-01T08:25:31;99170.06;;;18.94;57.14
71491;BME280;59307;50.060;9.150;2022-09-01T08:27:57;99169.31;;;19.07;56.29
71491;BME280;59307;50.060;9.150;2022-09-01T08:30:22;99170.06;;;19.21;55.48
71491;BME280;59307;50.060;9.150;2022-09-01T08:32:48;99173.34;;;19.32;55.10
71491;BME280;59307;50.060;9.150;2022-09-01T08:35:14;99167.16;;;19.09;55.17
71491;BME280;59307;50.060;9.150;2022-09-01T08:37:44;99175.84;;;19.09;54.74
71491;BME280;59307;50.060;9.150;2022-09-01T08:40:16;99175.16;;;19.31;54.96
71491;BME280;59307;50.060;9.150;2022-09-01T08:42:51;99178.88;;;19.16;54.70
71491;BME280;59307;50.060;9.150;2022-09-01T08:45:35;99175.97;;;19.32;54.96
71491;BME280;59307;50.060;9.150;2022-09-01T08:48:15;99171.88;;;19.39;54.81
71491;BME280;59307;50.060;9.150;2022-09-01T08:50:44;99172.03;;;19.56;54.63
71491;BME280;59307;50.060;9.150;2022-09-01T08:53:30;99174.41;;;19.44;54.78
71491;BME280;59307;50.060;9.150;2022-09-01T08:55:58;99174.78;;;19.51;53.56
71491;BME280;59307;50.060;9.150;2022-09-01T08:58:25;99171.63;;;19.63;53.64
71491;BME280;59307;50.060;9.150;2022-09-01T09:00:58;99165.38;;;19.72;53.61
71491;BME280;59307;50.060;9.150;2022-09-01T09:04:06;99164.59;;;20.30;52.87
71491;BME280;59307;50.060;9.150;2022-09-01T09:06:59;99169.22;;;21.07;51.06
71491;BME280;59307;50.060;9.150;2022-09-01T09:09:33;99168.97;;;21.17;49.24
71491;BME280;59307;50.060;9.150;2022-09-01T09:17:19;99173.97;;;20.88;50.26
71491;BME280;59307;50.060;9.150;2022-09-01T09:19:47;99172.97;;;21.06;50.66
71491;BME280;59307;50.060;9.150;2022-09-01T09:22:15;99165.94;;;21.02;49.99
71491;BME280;59307;50.060;9.150;2022-09-01T09:24:54;99171.47;;;20.92;49.75
71491;BME280;59307;50.060;9.150;2022-09-01T09:27:48;99161.25;;;20.99;50.13
71491;BME280;59307;50.060;9.150;2022-09-01T09:30:19;99172.88;;;20.98;48.80
71491;BME280;59307;50.060;9.150;2022-09-01T09:33:00;99165.81;;;20.76;49.95
71491;BME280;59307;50.060;9.150;2022-09-01T09:41:06;99149.47;;;21.05;49.54
71491;BME280;59307;50.060;9.150;2022-09-01T09:43:37;99148.44;;;20.92;49.30
71491;BME280;59307;50.060;9.150;2022-09-01T09:46:32;99136.66;;;20.98;49.26
71491;BME280;59307;50.060;9.150;2022-09-01T09:51:40;99138.59;;;21.15;49.45
71491;BME280;59307;50.060;9.150;2022-09-01T09:54:16;99145.81;;;21.23;49.80
71491;BME280;59307;50.060;9.150;2022-09-01T09:56:42;99142.84;;;21.25;47.65
71491;BME280;59307;50.060;9.150;2022-09-01T09:59:23;99141.63;;;21.31;46.96
71491;BME280;59307;50.060;9.150;2022-09-01T10:01:56;99139.13;;;21.43;47.67
71491;BME280;59307;50.060;9.150;2022-09-01T10:04:34;99133.22;;;21.37;47.13
71491;BME280;59307;50.060;9.150;2022-09-01T10:07:00;99133.13;;;21.59;47.49
71491;BME280;59307;50.060;9.150;2022-09-01T10:11:53;99134.69;;;22.03;44.53
71491;BME280;59307;50.060;9.150;2022-09-01T10:14:37;99128.59;;;22.02;44.93
71491;BME280;59307;50.060;9.150;2022-09-01T10:17:13;99138.09;;;22.38;45.22
71491;BME280;59307;50.060;9.150;2022-09-01T10:19:50;99125.56;;;22.55;44.43
71491;BME280;59307;50.060;9.150;2022-09-01T10:22:19;99122.53;;;22.82;44.81
71491;BME280;59307;50.060;9.150;2022-09-01T10:24:44;99129.03;;;22.93;42.81
71491;BME280;59307;50.060;9.150;2022-09-01T10:27:18;99135.66;;;23.08;42.78
71491;BME280;59307;50.060;9.150;2022-09-01T10:29:48;99126.72;;;23.21;42.22
71491;BME280;59307;50.060;9.150;2022-09-01T10:32:36;99128.59;;;22.83;42.62
71491;BME280;59307;50.060;9.150;2022-09-01T10:35:05;99125.94;;;22.83;42.01
71491;BME280;59307;50.060;9.150;2022-09-01T10:37:33;99121.88;;;23.15;41.75
71491;BME280;59307;50.060;9.150;2022-09-01T10:42:56;99121.13;;;23.43;41.97
71491;BME280;59307;50.060;9.150;2022-09-01T10:45:33;99117.56;;;23.60;41.71
71491;BME280;59307;50.060;9.150;2022-09-01T10:50:43;99109.94;;;23.29;40.71
71491;BME280;59307;50.060;9.150;2022-09-01T10:58:44;99114.66;;;23.53;41.62
71491;BME280;59307;50.060;9.150;2022-09-01T11:01:12;99106.88;;;23.68;39.28
71491;BME280;59307;50.060;9.150;2022-09-01T11:03:58;99110.25;;;23.98;38.31
71491;BME280;59307;50.060;9.150;2022-09-01T11:09:23;99111.78;;;24.20;39.56
71491;BME280;59307;50.060;9.150;2022-09-01T11:14:30;99106.66;;;24.59;36.37
71491;BME280;59307;50.060;9.150;2022-09-01T11:17:13;99116.06;;;24.57;37.09
71491;BME280;59307;50.060;9.150;2022-09-01T11:19:46;99107.97;;;24.09;37.00
71491;BME280;59307;50.060;9.150;2022-09-01T11:27:03;99114.03;;;24.30;37.43
71491;BME280;59307;50.060;9.150;2022-09-01T11:29:52;99104.91;;;24.63;35.47
71491;BME280;59307;50.060;9.150;2022-09-01T11:32:20;99110.03;;;24.92;34.01
71491;BME280;59307;50.060;9.150;2022-09-01T11:34:50;99110.28;;;25.51;33.59
71491;BME280;59307;50.060;9.150;2022-09-01T11:37:20;99096.88;;;25.60;31.94
71491;BME280;59307;50.060;9.150;2022-09-01T11:39:54;99100.84;;;25.66;33.40
71491;BME280;59307;50.060;9.150;2022-09-01T11:42:36;99106.09;;;25.50;33.63
71491;BME280;59307;50.060;9.150;2022-09-01T11:45:16;99095.19;;;25.67;34.33
71491;BME280;59307;50.060;9.150;2022-09-01T11:47:45;99096.63;;;25.65;33.89
71491;BME280;59307;50.060;9.150;2022-09-01T11:50:29;99081.22;;;25.86;33.39
71491;BME280;59307;50.060;9.150;2022-09-01T11:52:58;99087.25;;;26.26;33.54
71491;BME280;59307;50.060;9.150;2022-09-01T11:55:37;99084.69;;;26.14;32.72
71491;BME280;59307;50.060;9.150;2022-09-01T11:58:05;99079.88;;;26.51;31.97
71491;BME280;59307;50.060;9.150;2022-09-01T12:00:36;99078.06;;;27.02;32.16
71491;BME280;59307;50.060;9.150;2022-09-01T12:03:04;99077.06;;;26.75;30.81
71491;BME280;59307;50.060;9.150;2022-09-01T12:05:32;99064.91;;;26.62;31.77
71491;BME280;59307;50.060;9.150;2022-09-01T12:08:01;99065.50;;;26.09;32.59
71491;BME280;59307;50.060;9.150;2022-09-01T12:13:20;99062.47;;;26.26;32.44
71491;BME280;59307;50.060;9.150;2022-09-01T12:16:00;99066.00;;;26.30;31.64
71491;BME280;59307;50.060;9.150;2022-09-01T12:18:42;99061.66;;;26.68;30.15
71491;BME280;59307;50.060;9.150;2022-09-01T12:21:18;99056.38;;;26.41;30.29
71491;BME280;59307;50.060;9.150;2022-09-01T12:23:45;99050.00;;;26.30;30.79
71491;BME280;59307;50.060;9.150;2022-09-01T12:26:13;99054.06;;;26.24;30.16
71491;BME280;59307;50.060;9.150;2022-09-01T12:28:40;99047.03;;;26.04;31.02
71491;BME280;59307;50.060;9.150;2022-09-01T12:31:12;99059.91;;;26.14;30.65
71491;BME280;59307;50.060;9.150;2022-09-01T12:33:38;99046.06;;;26.55;31.30
71491;BME280;59307;50.060;9.150;2022-09-01T12:38:46;99040.97;;;25.75;31.05
71491;BME280;59307;50.060;9.150;2022-09-01T12:41:42;99038.09;;;25.29;31.23
71491;BME280;59307;50.060;9.150;2022-09-01T12:44:33;99028.38;;;25.21;31.22
71491;BME280;59307;50.060;9.150;2022-09-01T12:47:10;99034.03;;;25.59;30.83
71491;BME280;59307;50.060;9.150;2022-09-01T12:49:42;99028.44;;;25.36;31.78
71491;BME280;59307;50.060;9.150;2022-09-01T12:57:37;99019.69;;;28.18;27.85
71491;BME280;59307;50.060;9.150;2022-09-01T13:03:05;99024.34;;;27.22;28.14
71491;BME280;59307;50.060;9.150;2022-09-01T13:05:41;99018.16;;;27.75;27.34
71491;BME280;59307;50.060;9.150;2022-09-01T13:08:10;99014.91;;;27.86;27.92
71491;BME280;59307;50.060;9.150;2022-09-01T13:10:38;99012.75;;;26.80;29.65
71491;BME280;59307;50.060;9.150;2022-09-01T13:13:05;99011.13;;;25.70;30.46
71491;BME280;59307;50.060;9.150;2022-09-01T13:15:32;99008.13;;;25.44;31.19
71491;BME280;59307;50.060;9.150;2022-09-01T13:17:57;99005.84;;;27.14;28.39
71491;BME280;59307;50.060;9.150;2022-09-01T13:20:23;98998.84;;;29.69;25.39
71491;BME280;59307;50.060;9.150;2022-09-01T13:22:48;99000.63;;;30.34;23.79
71491;BME280;59307;50.060;9.150;2022-09-01T13:25:16;99015.22;;;31.98;22.13
71491;BME280;59307;50.060;9.150;2022-09-01T13:27:43;99014.81;;;32.91;20.74
71491;BME280;59307;50.060;9.150;2022-09-01T13:30:18;99021.72;;;33.06;20.50
71491;BME280;59307;50.060;9.150;2022-09-01T13:32:44;99013.72;;;32.57;20.08
71491;BME280;59307;50.060;9.150;2022-09-01T13:35:12;99014.78;;;31.75;21.82
71491;BME280;59307;50.060;9.150;2022-09-01T13:37:37;99005.72;;;31.15;22.15
71491;BME280;59307;50.060;9.150;2022-09-01T13:40:04;99011.25;;;31.50;21.73
71491;BME280;59307;50.060;9.150;2022-09-01T13:42:32;99007.19;;;30.95;22.49
71491;BME280;59307;50.060;9.150;2022-09-01T13:44:57;99010.97;;;30.87;22.35
71491;BME280;59307;50.060;9.150;2022-09-01T13:47:23;99001.13;;;28.78;25.10
71491;BME280;59307;50.060;9.150;2022-09-01T13:49:49;99006.91;;;27.86;26.90
71491;BME280;59307;50.060;9.150;2022-09-01T13:52:14;99004.56;;;26.57;28.77
71491;BME280;59307;50.060;9.150;2022-09-01T13:54:39;98997.44;;;25.99;29.74
71491;BME280;59307;50.060;9.150;2022-09-01T13:57:06;98994.34;;;26.75;28.43
71491;BME280;59307;50.060;9.150;2022-09-01T13:59:31;98994.78;;;26.15;29.44
71491;BME280;59307;50.060;9.150;2022-09-01T14:01:57;98983.94;;;25.92;29.85
71491;BME280;59307;50.060;9.150;2022-09-01T14:04:22;98993.13;;;25.95;30.27
71491;BME280;59307;50.060;9.150;2022-09-01T14:06:48;98994.13;;;25.74;30.10
71491;BME280;59307;50.060;9.150;2022-09-01T14:09:14;98994.75;;;27.12;28.66